sensor_id;sensor_type;location;lat;lon;timestamp;P1;durP1;ratioP1;P2;durP2;ratioP2
19816;SDS011;68323;49.394;8.434;2023-05-18T00:02:25;14.33;;;3.20;;
19816;SDS011;68323;49.394;8.434;2023-05-18T00:04:50;9.37;;;3.10;;
19816;SDS011;68323;49.394;8.434;2023-05-18T00:07:16;11.87;;;3.53;;
19816;SDS011;68323;49.394;8.434;2023-05-18T00:09:44;11.70;;;4.00;;
19816;SDS011;68323;49.394;8.434;2023-05-18T00:12:10;11.70;;;4.20;;
19816;SDS011;68323;49.394;8.434;2023-05-18T00:14:36;10.17;;;3.93;;
19816;SDS011;68323;49.394;8.434;2023-05-18T00:17:01;13.40;;;4.60;;
19816;SDS011;68323;49.394;8.434;2023-05-18T00:19:33;15.60;;;4.27;;
19816;SDS011;68323;49.394;8.434;2023-05-18T00:21:58;13.30;;;3.87;;
19816;SDS011;68323;49.394;8.434;2023-05-18T00:24:26;12.37;;;4.40;;
19816;SDS011;68323;49.394;8.434;2023-05-18T00:26:51;10.40;;;3.70;;
19816;SDS011;68323;49.394;8.434;2023-05-18T00:29:17;10.60;;;3.60;;
19816;SDS011;68323;49.394;8.434;2023-05-18T00:31:43;11.00;;;3.50;;
19816;SDS011;68323;49.394;8.434;2023-05-18T00:34:12;10.23;;;3.63;;
19816;SDS011;68323;49.394;8.434;2023-05-18T00:36:39;12.87;;;4.00;;
19816;SDS011;68323;49.394;8.434;2023-05-18T00:39:05;11.57;;;3.90;;
19816;SDS011;68323;49.394;8.434;2023-05-18T00:41:32;9.70;;;3.70;;
19816;SDS011;68323;49.394;8.434;2023-05-18T00:43:58;11.73;;;3.80;;
19816;SDS011;68323;49.394;8.434;2023-05-18T00:46:28;18.20;;;4.23;;
19816;SDS011;68323;49.394;8.434;2023-05-18T00:48:54;13.47;;;4.10;;
19816;SDS011;68323;49.394;8.434;2023-05-18T00:51:25;14.53;;;3.73;;
19816;SDS011;68323;49.394;8.434;2023-05-18T00:53:56;16.27;;;4.53;;
19816;SDS011;68323;49.394;8.434;2023-05-18T00:56:22;13.00;;;3.97;;
19816;SDS011;68323;49.394;8.434;2023-05-18T00:58:49;13.07;;;4.10;;
19816;SDS011;68323;49.394;8.434;2023-05-18T01:01:17;14.67;;;4.30;;
19816;SDS011;68323;49.394;8.434;2023-05-18T01:03:44;11.83;;;3.70;;
19816;SDS011;68323;49.394;8.434;2023-05-18T01:06:09;13.37;;;4.10;;
19816;SDS011;68323;49.394;8.434;2023-05-18T01:08:36;10.43;;;4.00;;
19816;SDS011;68323;49.394;8.434;2023-05-18T01:11:14;16.20;;;4.37;;
19816;SDS011;68323;49.394;8.434;2023-05-18T01:14:05;15.80;;;4.60;;
19816;SDS011;68323;49.394;8.434;2023-05-18T01:16:42;17.60;;;5.03;;
19816;SDS011;68323;49.394;8.434;2023-05-18T01:21:56;12.90;;;5.03;;
19816;SDS011;68323;49.394;8.434;2023-05-18T01:24:36;9.23;;;4.47;;
19816;SDS011;68323;49.394;8.434;2023-05-18T01:27:07;13.17;;;4.33;;
19816;SDS011;68323;49.394;8.434;2023-05-18T01:29:33;12.03;;;4.87;;
19816;SDS011;68323;49.394;8.434;2023-05-18T01:31:59;9.67;;;4.47;;
19816;SDS011;68323;49.394;8.434;2023-05-18T01:34:25;15.33;;;4.70;;
19816;SDS011;68323;49.394;8.434;2023-05-18T01:36:51;16.17;;;4.73;;
19816;SDS011;68323;49.394;8.434;2023-05-18T01:39:17;10.43;;;4.50;;
19816;SDS011;68323;49.394;8.434;2023-05-18T01:41:45;17.73;;;4.67;;
19816;SDS011;68323;49.394;8.434;2023-05-18T01:44:25;10.20;;;4.67;;
19816;SDS011;68323;49.394;8.434;2023-05-18T01:49:34;10.63;;;4.03;;
19816;SDS011;68323;49.394;8.434;2023-05-18T01:52:05;15.30;;;4.73;;
19816;SDS011;68323;49.394;8.434;2023-05-18T01:54:35;13.57;;;4.40;;
19816;SDS011;68323;49.394;8.434;2023-05-18T01:57:05;10.70;;;4.30;;
19816;SDS011;68323;49.394;8.434;2023-05-18T01:59:32;16.00;;;4.77;;
19816;SDS011;68323;49.394;8.434;2023-05-18T02:01:58;13.93;;;4.23;;
19816;SDS011;68323;49.394;8.434;2023-05-18T02:04:24;11.77;;;4.70;;
19816;SDS011;68323;49.394;8.434;2023-05-18T02:06:53;14.60;;;4.93;;
19816;SDS011;68323;49.394;8.434;2023-05-18T02:09:19;14.93;;;5.20;;
19816;SDS011;68323;49.394;8.434;2023-05-18T02:11:46;12.37;;;4.97;;
19816;SDS011;68323;49.394;8.434;2023-05-18T02:14:15;14.37;;;5.03;;
19816;SDS011;68323;49.394;8.434;2023-05-18T02:16:40;15.27;;;5.53;;
19816;SDS011;68323;49.394;8.434;2023-05-18T02:19:06;14.70;;;5.13;;
19816;SDS011;68323;49.394;8.434;2023-05-18T02:21:31;15.47;;;5.57;;
19816;SDS011;68323;49.394;8.434;2023-05-18T02:23:59;14.67;;;5.43;;
19816;SDS011;68323;49.394;8.434;2023-05-18T02:26:25;10.90;;;5.40;;
19816;SDS011;68323;49.394;8.434;2023-05-18T02:28:51;15.47;;;5.50;;
19816;SDS011;68323;49.394;8.434;2023-05-18T02:31:17;14.80;;;5.90;;
19816;SDS011;68323;49.394;8.434;2023-05-18T02:33:42;14.20;;;5.20;;
19816;SDS011;68323;49.394;8.434;2023-05-18T02:36:08;15.63;;;5.53;;
19816;SDS011;68323;49.394;8.434;2023-05-18T02:38:37;14.10;;;5.17;;
19816;SDS011;68323;49.394;8.434;2023-05-18T02:41:04;16.83;;;4.90;;
19816;SDS011;68323;49.394;8.434;2023-05-18T02:43:30;13.60;;;4.93;;
19816;SDS011;68323;49.394;8.434;2023-05-18T02:45:55;16.60;;;5.23;;
19816;SDS011;68323;49.394;8.434;2023-05-18T02:48:21;13.00;;;4.70;;
19816;SDS011;68323;49.394;8.434;2023-05-18T02:50:47;13.37;;;5.20;;
19816;SDS011;68323;49.394;8.434;2023-05-18T02:53:13;14.10;;;5.17;;
19816;SDS011;68323;49.394;8.434;2023-05-18T02:55:38;14.13;;;4.90;;
19816;SDS011;68323;49.394;8.434;2023-05-18T02:58:05;16.97;;;5.10;;
19816;SDS011;68323;49.394;8.434;2023-05-18T03:00:31;15.77;;;5.00;;
19816;SDS011;68323;49.394;8.434;2023-05-18T03:02:57;22.73;;;5.50;;
19816;SDS011;68323;49.394;8.434;2023-05-18T03:05:24;16.63;;;5.07;;
19816;SDS011;68323;49.394;8.434;2023-05-18T03:07:51;15.40;;;5.63;;
19816;SDS011;68323;49.394;8.434;2023-05-18T03:10:18;12.67;;;4.67;;
19816;SDS011;68323;49.394;8.434;2023-05-18T03:12:45;15.63;;;5.07;;
19816;SDS011;68323;49.394;8.434;2023-05-18T03:15:11;12.63;;;4.73;;
19816;SDS011;68323;49.394;8.434;2023-05-18T03:17:38;14.70;;;4.70;;
19816;SDS011;68323;49.394;8.434;2023-05-18T03:20:05;17.87;;;4.83;;
19816;SDS011;68323;49.394;8.434;2023-05-18T03:22:31;19.60;;;5.43;;
19816;SDS011;68323;49.394;8.434;2023-05-18T03:24:57;16.50;;;5.07;;
19816;SDS011;68323;49.394;8.434;2023-05-18T03:27:22;14.20;;;4.90;;
19816;SDS011;68323;49.394;8.434;2023-05-18T03:29:51;15.30;;;5.17;;
19816;SDS011;68323;49.394;8.434;2023-05-18T03:32:17;15.43;;;5.13;;
19816;SDS011;68323;49.394;8.434;2023-05-18T03:34:43;17.97;;;5.17;;
19816;SDS011;68323;49.394;8.434;2023-05-18T03:37:11;14.70;;;4.60;;
19816;SDS011;68323;49.394;8.434;2023-05-18T03:39:39;15.57;;;5.37;;
19816;SDS011;68323;49.394;8.434;2023-05-18T03:42:05;19.37;;;5.07;;
19816;SDS011;68323;49.394;8.434;2023-05-18T03:44:31;16.13;;;5.00;;
19816;SDS011;68323;49.394;8.434;2023-05-18T03:46:56;15.97;;;4.80;;
19816;SDS011;68323;49.394;8.434;2023-05-18T03:49:22;14.87;;;4.70;;
19816;SDS011;68323;49.394;8.434;2023-05-18T03:51:48;14.90;;;5.07;;
19816;SDS011;68323;49.394;8.434;2023-05-18T03:54:13;17.03;;;5.17;;
19816;SDS011;68323;49.394;8.434;2023-05-18T03:56:39;17.63;;;5.40;;
19816;SDS011;68323;49.394;8.434;2023-05-18T03:59:05;18.43;;;5.33;;
19816;SDS011;68323;49.394;8.434;2023-05-18T04:01:31;17.67;;;4.80;;
19816;SDS011;68323;49.394;8.434;2023-05-18T04:03:58;16.13;;;4.70;;
19816;SDS011;68323;49.394;8.434;2023-05-18T04:06:24;18.27;;;5.70;;
19816;SDS011;68323;49.394;8.434;2023-05-18T04:08:53;18.50;;;5.50;;
19816;SDS011;68323;49.394;8.434;2023-05-18T04:11:19;16.90;;;5.60;;
19816;SDS011;68323;49.394;8.434;2023-05-18T04:13:45;20.97;;;5.60;;
19816;SDS011;68323;49.394;8.434;2023-05-18T04:16:11;16.43;;;5.30;;
19816;SDS011;68323;49.394;8.434;2023-05-18T04:18:41;14.37;;;5.50;;
19816;SDS011;68323;49.394;8.434;2023-05-18T04:21:07;14.13;;;5.23;;
19816;SDS011;68323;49.394;8.434;2023-05-18T04:23:32;16.13;;;5.00;;
19816;SDS011;68323;49.394;8.434;2023-05-18T04:26:03;16.60;;;5.17;;
19816;SDS011;68323;49.394;8.434;2023-05-18T04:28:30;13.57;;;5.20;;
19816;SDS011;68323;49.394;8.434;2023-05-18T04:30:56;18.80;;;5.43;;
19816;SDS011;68323;49.394;8.434;2023-05-18T04:33:22;18.30;;;5.70;;
19816;SDS011;68323;49.394;8.434;2023-05-18T04:35:50;17.93;;;5.47;;
19816;SDS011;68323;49.394;8.434;2023-05-18T04:38:23;15.33;;;5.03;;
19816;SDS011;68323;49.394;8.434;2023-05-18T04:40:49;16.17;;;5.60;;
19816;SDS011;68323;49.394;8.434;2023-05-18T04:43:15;16.23;;;5.03;;
19816;SDS011;68323;49.394;8.434;2023-05-18T04:45:42;18.00;;;5.87;;
19816;SDS011;68323;49.394;8.434;2023-05-18T04:48:14;16.77;;;5.50;;
19816;SDS011;68323;49.394;8.434;2023-05-18T04:50:41;16.80;;;5.40;;
19816;SDS011;68323;49.394;8.434;2023-05-18T04:53:07;14.60;;;5.30;;
19816;SDS011;68323;49.394;8.434;2023-05-18T04:55:36;16.57;;;5.10;;
19816;SDS011;68323;49.394;8.434;2023-05-18T04:58:02;17.37;;;5.43;;
19816;SDS011;68323;49.394;8.434;2023-05-18T05:00:28;17.73;;;5.40;;
19816;SDS011;68323;49.394;8.434;2023-05-18T05:02:55;19.00;;;5.40;;
19816;SDS011;68323;49.394;8.434;2023-05-18T05:05:21;14.10;;;5.13;;
19816;SDS011;68323;49.394;8.434;2023-05-18T05:07:51;16.03;;;5.17;;
19816;SDS011;68323;49.394;8.434;2023-05-18T05:10:20;12.37;;;4.80;;
19816;SDS011;68323;49.394;8.434;2023-05-18T05:12:47;16.17;;;5.03;;
19816;SDS011;68323;49.394;8.434;2023-05-18T05:15:13;10.87;;;4.77;;
19816;SDS011;68323;49.394;8.434;2023-05-18T05:17:39;14.43;;;5.10;;
19816;SDS011;68323;49.394;8.434;2023-05-18T05:20:04;14.63;;;5.03;;
19816;SDS011;68323;49.394;8.434;2023-05-18T05:22:30;13.37;;;4.90;;
19816;SDS011;68323;49.394;8.434;2023-05-18T05:24:56;11.17;;;4.23;;
19816;SDS011;68323;49.394;8.434;2023-05-18T05:27:21;15.20;;;4.00;;
19816;SDS011;68323;49.394;8.434;2023-05-18T05:29:50;14.37;;;4.33;;
19816;SDS011;68323;49.394;8.434;2023-05-18T05:32:15;12.53;;;4.10;;
19816;SDS011;68323;49.394;8.434;2023-05-18T05:34:41;11.70;;;3.73;;
19816;SDS011;68323;49.394;8.434;2023-05-18T05:37:12;10.90;;;3.43;;
19816;SDS011;68323;49.394;8.434;2023-05-18T05:39:38;13.20;;;3.97;;
19816;SDS011;68323;49.394;8.434;2023-05-18T05:42:04;10.70;;;3.40;;
19816;SDS011;68323;49.394;8.434;2023-05-18T05:44:31;9.10;;;3.33;;
19816;SDS011;68323;49.394;8.434;2023-05-18T05:46:56;9.73;;;3.60;;
19816;SDS011;68323;49.394;8.434;2023-05-18T05:49:22;13.33;;;3.10;;
19816;SDS011;68323;49.394;8.434;2023-05-18T05:51:47;9.70;;;3.97;;
19816;SDS011;68323;49.394;8.434;2023-05-18T05:54:13;10.00;;;3.43;;
19816;SDS011;68323;49.394;8.434;2023-05-18T05:56:39;8.50;;;3.10;;
19816;SDS011;68323;49.394;8.434;2023-05-18T05:59:04;11.57;;;3.50;;
19816;SDS011;68323;49.394;8.434;2023-05-18T06:01:30;11.33;;;3.40;;
19816;SDS011;68323;49.394;8.434;2023-05-18T06:03:56;14.67;;;3.37;;
19816;SDS011;68323;49.394;8.434;2023-05-18T06:06:22;13.40;;;3.40;;
19816;SDS011;68323;49.394;8.434;2023-05-18T06:08:47;8.37;;;3.30;;
19816;SDS011;68323;49.394;8.434;2023-05-18T06:11:15;12.13;;;4.33;;
19816;SDS011;68323;49.394;8.434;2023-05-18T06:13:41;10.70;;;3.40;;
19816;SDS011;68323;49.394;8.434;2023-05-18T06:16:06;8.23;;;2.97;;
19816;SDS011;68323;49.394;8.434;2023-05-18T06:18:32;11.30;;;3.00;;
19816;SDS011;68323;49.394;8.434;2023-05-18T06:20:58;8.57;;;3.00;;
19816;SDS011;68323;49.394;8.434;2023-05-18T06:23:24;10.23;;;2.80;;
19816;SDS011;68323;49.394;8.434;2023-05-18T06:25:50;9.50;;;3.10;;
19816;SDS011;68323;49.394;8.434;2023-05-18T06:28:16;9.03;;;2.80;;
19816;SDS011;68323;49.394;8.434;2023-05-18T06:30:42;11.47;;;2.77;;
19816;SDS011;68323;49.394;8.434;2023-05-18T06:33:07;11.00;;;2.77;;
19816;SDS011;68323;49.394;8.434;2023-05-18T06:35:33;6.70;;;2.60;;
19816;SDS011;68323;49.394;8.434;2023-05-18T06:37:59;10.57;;;2.90;;
19816;SDS011;68323;49.394;8.434;2023-05-18T06:40:24;8.30;;;2.50;;
19816;SDS011;68323;49.394;8.434;2023-05-18T06:42:50;8.13;;;2.42;;
19816;SDS011;68323;49.394;8.434;2023-05-18T06:45:15;10.30;;;2.22;;
19816;SDS011;68323;49.394;8.434;2023-05-18T06:47:41;9.15;;;2.70;;
19816;SDS011;68323;49.394;8.434;2023-05-18T06:50:08;11.02;;;2.70;;
19816;SDS011;68323;49.394;8.434;2023-05-18T06:52:33;7.82;;;2.47;;
19816;SDS011;68323;49.394;8.434;2023-05-18T06:54:59;8.05;;;2.70;;
19816;SDS011;68323;49.394;8.434;2023-05-18T06:57:27;7.47;;;2.40;;
19816;SDS011;68323;49.394;8.434;2023-05-18T06:59:53;10.13;;;2.65;;
19816;SDS011;68323;49.394;8.434;2023-05-18T07:02:19;10.82;;;2.40;;
19816;SDS011;68323;49.394;8.434;2023-05-18T07:04:45;9.43;;;2.67;;
19816;SDS011;68323;49.394;8.434;2023-05-18T07:07:12;9.10;;;2.63;;
19816;SDS011;68323;49.394;8.434;2023-05-18T07:09:37;6.70;;;2.42;;
19816;SDS011;68323;49.394;8.434;2023-05-18T07:12:06;7.38;;;2.30;;
19816;SDS011;68323;49.394;8.434;2023-05-18T07:14:32;6.88;;;2.53;;
19816;SDS011;68323;49.394;8.434;2023-05-18T07:16:57;9.50;;;2.65;;
19816;SDS011;68323;49.394;8.434;2023-05-18T07:19:23;8.60;;;2.63;;
19816;SDS011;68323;49.394;8.434;2023-05-18T07:21:48;10.27;;;2.58;;
19816;SDS011;68323;49.394;8.434;2023-05-18T07:24:14;7.82;;;2.60;;
19816;SDS011;68323;49.394;8.434;2023-05-18T07:26:39;9.95;;;2.50;;
19816;SDS011;68323;49.394;8.434;2023-05-18T07:29:05;10.15;;;2.80;;
19816;SDS011;68323;49.394;8.434;2023-05-18T07:31:31;8.82;;;2.88;;
19816;SDS011;68323;49.394;8.434;2023-05-18T07:34:00;7.07;;;2.60;;
19816;SDS011;68323;49.394;8.434;2023-05-18T07:36:26;10.10;;;3.05;;
19816;SDS011;68323;49.394;8.434;2023-05-18T07:38:52;5.63;;;2.60;;
19816;SDS011;68323;49.394;8.434;2023-05-18T07:41:19;9.70;;;2.65;;
19816;SDS011;68323;49.394;8.434;2023-05-18T07:43:47;5.47;;;2.58;;
19816;SDS011;68323;49.394;8.434;2023-05-18T07:46:13;7.63;;;2.55;;
19816;SDS011;68323;49.394;8.434;2023-05-18T07:48:38;10.32;;;2.70;;
19816;SDS011;68323;49.394;8.434;2023-05-18T07:51:04;9.40;;;2.70;;
19816;SDS011;68323;49.394;8.434;2023-05-18T07:53:29;6.25;;;2.40;;
19816;SDS011;68323;49.394;8.434;2023-05-18T07:55:55;8.45;;;2.65;;
19816;SDS011;68323;49.394;8.434;2023-05-18T07:58:21;5.45;;;2.65;;
19816;SDS011;68323;49.394;8.434;2023-05-18T08:00:46;7.20;;;2.65;;
19816;SDS011;68323;49.394;8.434;2023-05-18T08:03:12;9.43;;;3.20;;
19816;SDS011;68323;49.394;8.434;2023-05-18T08:05:38;9.88;;;2.33;;
19816;SDS011;68323;49.394;8.434;2023-05-18T08:08:03;14.02;;;3.00;;
19816;SDS011;68323;49.394;8.434;2023-05-18T08:10:29;10.48;;;2.83;;
19816;SDS011;68323;49.394;8.434;2023-05-18T08:12:55;8.60;;;2.58;;
19816;SDS011;68323;49.394;8.434;2023-05-18T08:15:20;8.77;;;2.97;;
19816;SDS011;68323;49.394;8.434;2023-05-18T08:17:49;9.00;;;2.70;;
19816;SDS011;68323;49.394;8.434;2023-05-18T08:20:14;8.25;;;2.80;;
19816;SDS011;68323;49.394;8.434;2023-05-18T08:22:41;9.93;;;3.03;;
19816;SDS011;68323;49.394;8.434;2023-05-18T08:25:06;6.28;;;2.60;;
19816;SDS011;68323;49.394;8.434;2023-05-18T08:27:34;7.05;;;2.92;;
19816;SDS011;68323;49.394;8.434;2023-05-18T08:29:59;12.80;;;2.83;;
19816;SDS011;68323;49.394;8.434;2023-05-18T08:32:25;10.07;;;2.97;;
19816;SDS011;68323;49.394;8.434;2023-05-18T08:34:51;8.20;;;3.28;;
19816;SDS011;68323;49.394;8.434;2023-05-18T08:37:18;11.02;;;2.92;;
19816;SDS011;68323;49.394;8.434;2023-05-18T08:39:44;7.88;;;2.70;;
19816;SDS011;68323;49.394;8.434;2023-05-18T08:47:55;6.70;;;2.47;;
19816;SDS011;68323;49.394;8.434;2023-05-18T08:50:24;7.93;;;2.60;;
19816;SDS011;68323;49.394;8.434;2023-05-18T08:52:53;9.52;;;2.42;;
19816;SDS011;68323;49.394;8.434;2023-05-18T08:55:19;9.93;;;2.97;;
19816;SDS011;68323;49.394;8.434;2023-05-18T08:57:48;8.05;;;2.53;;
19816;SDS011;68323;49.394;8.434;2023-05-18T09:00:20;9.88;;;2.80;;
19816;SDS011;68323;49.394;8.434;2023-05-18T09:02:46;7.22;;;2.95;;
19816;SDS011;68323;49.394;8.434;2023-05-18T09:05:12;8.40;;;2.88;;
19816;SDS011;68323;49.394;8.434;2023-05-18T09:07:39;10.88;;;2.60;;
19816;SDS011;68323;49.394;8.434;2023-05-18T09:10:08;10.02;;;2.88;;
19816;SDS011;68323;49.394;8.434;2023-05-18T09:12:34;9.13;;;2.88;;
19816;SDS011;68323;49.394;8.434;2023-05-18T09:15:00;14.68;;;2.70;;
19816;SDS011;68323;49.394;8.434;2023-05-18T09:17:27;13.18;;;3.08;;
19816;SDS011;68323;49.394;8.434;2023-05-18T09:19:53;12.20;;;3.10;;
19816;SDS011;68323;49.394;8.434;2023-05-18T09:22:18;9.43;;;3.03;;
19816;SDS011;68323;49.394;8.434;2023-05-18T09:24:44;5.55;;;2.70;;
19816;SDS011;68323;49.394;8.434;2023-05-18T09:27:10;11.02;;;2.95;;
19816;SDS011;68323;49.394;8.434;2023-05-18T09:29:36;9.13;;;2.75;;
19816;SDS011;68323;49.394;8.434;2023-05-18T09:32:16;8.95;;;3.20;;
19816;SDS011;68323;49.394;8.434;2023-05-18T09:34:42;7.20;;;2.95;;
19816;SDS011;68323;49.394;8.434;2023-05-18T09:37:09;8.93;;;2.75;;
19816;SDS011;68323;49.394;8.434;2023-05-18T09:39:35;9.05;;;2.75;;
19816;SDS011;68323;49.394;8.434;2023-05-18T09:42:01;8.40;;;2.97;;
19816;SDS011;68323;49.394;8.434;2023-05-18T09:44:30;13.57;;;2.80;;
19816;SDS011;68323;49.394;8.434;2023-05-18T09:46:59;9.75;;;2.85;;
19816;SDS011;68323;49.394;8.434;2023-05-18T09:49:27;8.88;;;3.28;;
19816;SDS011;68323;49.394;8.434;2023-05-18T09:51:53;10.00;;;2.90;;
19816;SDS011;68323;49.394;8.434;2023-05-18T09:54:20;10.07;;;3.17;;
19816;SDS011;68323;49.394;8.434;2023-05-18T09:56:46;8.48;;;2.75;;
19816;SDS011;68323;49.394;8.434;2023-05-18T09:59:14;7.38;;;2.75;;
19816;SDS011;68323;49.394;8.434;2023-05-18T10:01:59;6.25;;;2.55;;
19816;SDS011;68323;49.394;8.434;2023-05-18T10:04:39;8.45;;;2.97;;
19816;SDS011;68323;49.394;8.434;2023-05-18T10:07:13;9.55;;;2.92;;
19816;SDS011;68323;49.394;8.434;2023-05-18T10:09:40;7.78;;;2.63;;
19816;SDS011;68323;49.394;8.434;2023-05-18T10:12:11;10.23;;;2.88;;
19816;SDS011;68323;49.394;8.434;2023-05-18T10:14:42;10.70;;;3.03;;
19816;SDS011;68323;49.394;8.434;2023-05-18T10:17:11;7.95;;;3.08;;
19816;SDS011;68323;49.394;8.434;2023-05-18T10:19:39;7.25;;;2.75;;
19816;SDS011;68323;49.394;8.434;2023-05-18T10:22:08;9.43;;;3.30;;
19816;SDS011;68323;49.394;8.434;2023-05-18T10:24:35;11.80;;;3.20;;
19816;SDS011;68323;49.394;8.434;2023-05-18T10:27:05;9.23;;;2.75;;
19816;SDS011;68323;49.394;8.434;2023-05-18T10:29:33;13.02;;;2.78;;
19816;SDS011;68323;49.394;8.434;2023-05-18T10:32:02;7.38;;;2.63;;
19816;SDS011;68323;49.394;8.434;2023-05-18T10:34:29;10.70;;;2.85;;
19816;SDS011;68323;49.394;8.434;2023-05-18T10:36:58;7.55;;;2.58;;
19816;SDS011;68323;49.394;8.434;2023-05-18T10:39:28;11.45;;;2.72;;
19816;SDS011;68323;49.394;8.434;2023-05-18T10:41:54;7.10;;;2.78;;
19816;SDS011;68323;49.394;8.434;2023-05-18T10:44:23;9.43;;;2.42;;
19816;SDS011;68323;49.394;8.434;2023-05-18T10:46:49;7.32;;;2.55;;
19816;SDS011;68323;49.394;8.434;2023-05-18T10:49:18;8.63;;;3.10;;
19816;SDS011;68323;49.394;8.434;2023-05-18T10:51:49;9.88;;;2.97;;
19816;SDS011;68323;49.394;8.434;2023-05-18T10:54:18;8.18;;;2.63;;
19816;SDS011;68323;49.394;8.434;2023-05-18T10:56:45;11.27;;;3.05;;
19816;SDS011;68323;49.394;8.434;2023-05-18T10:59:14;8.35;;;2.78;;
19816;SDS011;68323;49.394;8.434;2023-05-18T11:01:42;11.70;;;3.17;;
19816;SDS011;68323;49.394;8.434;2023-05-18T11:04:09;6.15;;;2.40;;
19816;SDS011;68323;49.394;8.434;2023-05-18T11:06:35;7.60;;;2.58;;
19816;SDS011;68323;49.394;8.434;2023-05-18T11:09:01;9.65;;;2.40;;
19816;SDS011;68323;49.394;8.434;2023-05-18T11:11:27;9.32;;;2.60;;
19816;SDS011;68323;49.394;8.434;2023-05-18T11:13:58;6.65;;;2.50;;
19816;SDS011;68323;49.394;8.434;2023-05-18T11:16:31;7.40;;;2.60;;
19816;SDS011;68323;49.394;8.434;2023-05-18T11:19:04;7.97;;;2.58;;
19816;SDS011;68323;49.394;8.434;2023-05-18T11:26:54;8.40;;;2.63;;
19816;SDS011;68323;49.394;8.434;2023-05-18T11:29:36;7.80;;;2.45;;
19816;SDS011;68323;49.394;8.434;2023-05-18T11:32:27;7.87;;;2.90;;
19816;SDS011;68323;49.394;8.434;2023-05-18T11:34:54;7.38;;;2.55;;
19816;SDS011;68323;49.394;8.434;2023-05-18T11:40:43;9.10;;;2.60;;
19816;SDS011;68323;49.394;8.434;2023-05-18T11:43:21;8.38;;;2.58;;
19816;SDS011;68323;49.394;8.434;2023-05-18T11:45:55;11.88;;;2.67;;
19816;SDS011;68323;49.394;8.434;2023-05-18T11:48:26;7.28;;;2.53;;
19816;SDS011;68323;49.394;8.434;2023-05-18T11:50:55;9.85;;;2.58;;
19816;SDS011;68323;49.394;8.434;2023-05-18T11:53:24;8.77;;;2.80;;
19816;SDS011;68323;49.394;8.434;2023-05-18T11:55:54;7.70;;;2.63;;
19816;SDS011;68323;49.394;8.434;2023-05-18T11:58:22;10.00;;;2.60;;
19816;SDS011;68323;49.394;8.434;2023-05-18T12:00:49;9.68;;;2.83;;
19816;SDS011;68323;49.394;8.434;2023-05-18T12:03:15;9.05;;;2.85;;
19816;SDS011;68323;49.394;8.434;2023-05-18T12:05:41;7.10;;;2.38;;
19816;SDS011;68323;49.394;8.434;2023-05-18T12:08:14;9.40;;;2.57;;
19816;SDS011;68323;49.394;8.434;2023-05-18T12:10:44;9.82;;;2.63;;
19816;SDS011;68323;49.394;8.434;2023-05-18T12:13:13;9.13;;;2.40;;
19816;SDS011;68323;49.394;8.434;2023-05-18T12:15:40;7.10;;;2.55;;
19816;SDS011;68323;49.394;8.434;2023-05-18T12:18:06;5.57;;;2.75;;
19816;SDS011;68323;49.394;8.434;2023-05-18T12:20:32;8.65;;;2.47;;
19816;SDS011;68323;49.394;8.434;2023-05-18T12:22:59;8.25;;;2.60;;
19816;SDS011;68323;49.394;8.434;2023-05-18T12:25:25;11.65;;;3.00;;
19816;SDS011;68323;49.394;8.434;2023-05-18T12:27:52;10.82;;;2.80;;
19816;SDS011;68323;49.394;8.434;2023-05-18T12:30:19;9.60;;;2.45;;
19816;SDS011;68323;49.394;8.434;2023-05-18T12:32:47;7.78;;;2.78;;
19816;SDS011;68323;49.394;8.434;2023-05-18T12:35:14;8.98;;;2.60;;
19816;SDS011;68323;49.394;8.434;2023-05-18T12:37:41;6.43;;;2.15;;
19816;SDS011;68323;49.394;8.434;2023-05-18T12:40:13;9.48;;;2.50;;
19816;SDS011;68323;49.394;8.434;2023-05-18T12:42:49;9.52;;;2.33;;
19816;SDS011;68323;49.394;8.434;2023-05-18T12:45:19;9.40;;;2.30;;
19816;SDS011;68323;49.394;8.434;2023-05-18T12:47:47;6.95;;;2.42;;
19816;SDS011;68323;49.394;8.434;2023-05-18T12:50:18;5.27;;;2.00;;
19816;SDS011;68323;49.394;8.434;2023-05-18T12:52:43;11.40;;;2.73;;
19816;SDS011;68323;49.394;8.434;2023-05-18T12:55:09;8.73;;;2.40;;
19816;SDS011;68323;49.394;8.434;2023-05-18T12:57:41;7.40;;;2.50;;
19816;SDS011;68323;49.394;8.434;2023-05-18T13:00:07;6.40;;;2.75;;
19816;SDS011;68323;49.394;8.434;2023-05-18T13:02:36;8.60;;;2.60;;
19816;SDS011;68323;49.394;8.434;2023-05-18T13:05:06;10.48;;;2.30;;
19816;SDS011;68323;49.394;8.434;2023-05-18T13:07:37;10.85;;;2.50;;
19816;SDS011;68323;49.394;8.434;2023-05-18T13:10:08;6.97;;;2.47;;
19816;SDS011;68323;49.394;8.434;2023-05-18T13:12:42;7.78;;;2.60;;
19816;SDS011;68323;49.394;8.434;2023-05-18T13:15:17;8.20;;;2.50;;
19816;SDS011;68323;49.394;8.434;2023-05-18T13:22:57;8.87;;;2.50;;
19816;SDS011;68323;49.394;8.434;2023-05-18T13:25:27;5.97;;;2.40;;
19816;SDS011;68323;49.394;8.434;2023-05-18T13:27:53;7.97;;;2.50;;
19816;SDS011;68323;49.394;8.434;2023-05-18T13:30:20;8.43;;;2.63;;
19816;SDS011;68323;49.394;8.434;2023-05-18T13:32:46;8.93;;;2.33;;
19816;SDS011;68323;49.394;8.434;2023-05-18T13:35:12;8.45;;;2.50;;
19816;SDS011;68323;49.394;8.434;2023-05-18T13:37:38;6.30;;;2.30;;
19816;SDS011;68323;49.394;8.434;2023-05-18T13:40:04;7.65;;;2.25;;
19816;SDS011;68323;49.394;8.434;2023-05-18T13:42:31;9.15;;;2.60;;
19816;SDS011;68323;49.394;8.434;2023-05-18T13:44:57;11.80;;;2.72;;
19816;SDS011;68323;49.394;8.434;2023-05-18T13:47:23;10.90;;;2.80;;
19816;SDS011;68323;49.394;8.434;2023-05-18T13:49:48;8.52;;;2.45;;
19816;SDS011;68323;49.394;8.434;2023-05-18T13:52:14;10.32;;;2.60;;
19816;SDS011;68323;49.394;8.434;2023-05-18T13:54:39;6.40;;;2.50;;
19816;SDS011;68323;49.394;8.434;2023-05-18T13:57:05;8.65;;;2.53;;
19816;SDS011;68323;49.394;8.434;2023-05-18T13:59:31;9.05;;;2.80;;
19816;SDS011;68323;49.394;8.434;2023-05-18T14:01:58;9.25;;;2.38;;
19816;SDS011;68323;49.394;8.434;2023-05-18T14:04:25;7.45;;;2.33;;
19816;SDS011;68323;49.394;8.434;2023-05-18T14:06:51;8.93;;;2.67;;
19816;SDS011;68323;49.394;8.434;2023-05-18T14:09:18;6.30;;;2.33;;
19816;SDS011;68323;49.394;8.434;2023-05-18T14:11:43;9.57;;;2.53;;
19816;SDS011;68323;49.394;8.434;2023-05-18T14:14:09;7.82;;;2.13;;
19816;SDS011;68323;49.394;8.434;2023-05-18T14:16:35;6.53;;;2.05;;
19816;SDS011;68323;49.394;8.434;2023-05-18T14:19:00;14.52;;;2.45;;
19816;SDS011;68323;49.394;8.434;2023-05-18T14:21:26;8.40;;;2.42;;
19816;SDS011;68323;49.394;8.434;2023-05-18T14:23:52;7.60;;;2.20;;
19816;SDS011;68323;49.394;8.434;2023-05-18T14:26:17;7.63;;;2.35;;
19816;SDS011;68323;49.394;8.434;2023-05-18T14:28:43;8.57;;;2.55;;
19816;SDS011;68323;49.394;8.434;2023-05-18T14:31:08;9.98;;;2.40;;
19816;SDS011;68323;49.394;8.434;2023-05-18T14:33:34;7.78;;;2.28;;
19816;SDS011;68323;49.394;8.434;2023-05-18T14:36:00;13.68;;;2.80;;
19816;SDS011;68323;49.394;8.434;2023-05-18T14:38:25;7.40;;;2.75;;
19816;SDS011;68323;49.394;8.434;2023-05-18T14:40:51;8.18;;;2.55;;
19816;SDS011;68323;49.394;8.434;2023-05-18T14:43:17;8.95;;;2.58;;
19816;SDS011;68323;49.394;8.434;2023-05-18T14:45:43;7.22;;;2.17;;
19816;SDS011;68323;49.394;8.434;2023-05-18T14:48:08;10.60;;;2.60;;
19816;SDS011;68323;49.394;8.434;2023-05-18T14:50:35;9.38;;;2.63;;
19816;SDS011;68323;49.394;8.434;2023-05-18T14:53:01;9.15;;;2.53;;
19816;SDS011;68323;49.394;8.434;2023-05-18T14:55:26;7.25;;;2.20;;
19816;SDS011;68323;49.394;8.434;2023-05-18T14:57:52;7.70;;;1.90;;
19816;SDS011;68323;49.394;8.434;2023-05-18T15:00:17;7.57;;;2.55;;
19816;SDS011;68323;49.394;8.434;2023-05-18T15:02:43;6.75;;;2.30;;
19816;SDS011;68323;49.394;8.434;2023-05-18T15:05:09;8.82;;;2.45;;
19816;SDS011;68323;49.394;8.434;2023-05-18T15:07:35;5.25;;;2.42;;